Time;durP1;ratioP1;P1;durP2;ratioP2;P2;SDS_P1;SDS_P2;PMS_P1;PMS_P2;Temp;Humidity;BMP_temperature;BMP_pressure;BME280_temperature;BME280_humidity;BME280_pressure;Samples;Min_cycle;Max_cycle;Signal;HPM_P1;HPM_P2
2021/06/22 00:00:33;;;;;;;14.43;7.28;;;24.60;80.60;;;;;;5094025;28;20028;-71
2021/06/22 00:03:00;;;;;;;7.00;5.05;;;24.50;78.90;;;;;;5094486;28;20032;-70
2021/06/22 00:05:26;;;;;;;10.88;5.15;;;24.40;80.30;;;;;;5094666;28;20080;-70
2021/06/22 00:07:54;;;;;;;5.20;4.07;;;24.40;80.50;;;;;;5104179;28;20415;-70
2021/06/22 00:10:26;;;;;;;55.95;9.27;;;24.30;80.30;;;;;;5114387;28;20012;-70
2021/06/22 00:12:52;;;;;;;9.20;5.43;;;24.30;80.40;;;;;;5113000;28;20089;-71
2021/06/22 00:15:20;;;;;;;37.92;7.90;;;24.10;79.60;;;;;;5112569;28;20024;-70
2021/06/22 00:17:46;;;;;;;8.15;5.80;;;23.90;79.70;;;;;;5093515;28;20031;-71
2021/06/22 00:20:13;;;;;;;9.25;7.20;;;23.70;81.00;;;;;;5093702;28;20031;-71
2021/06/22 00:22:40;;;;;;;11.60;7.18;;;23.40;81.10;;;;;;5107928;28;20515;-71
2021/06/22 00:25:08;;;;;;;9.93;6.20;;;23.30;82.20;;;;;;5093611;28;20020;-71
2021/06/22 00:27:34;;;;;;;6.40;5.65;;;23.10;82.70;;;;;;5110849;28;20020;-70
2021/06/22 00:30:00;;;;;;;9.23;6.22;;;23.00;83.30;;;;;;5113180;27;20027;-70
2021/06/22 00:32:26;;;;;;;7.15;6.43;;;22.90;82.60;;;;;;5111398;28;20512;-71
2021/06/22 00:34:52;;;;;;;7.68;6.50;;;22.80;83.20;;;;;;5107054;28;20059;-71
2021/06/22 00:37:18;;;;;;;6.47;5.85;;;22.80;83.70;;;;;;5096732;28;20473;-71
2021/06/22 00:39:45;;;;;;;11.32;6.97;;;22.80;84.30;;;;;;5096079;28;20032;-71
2021/06/22 00:42:12;;;;;;;8.23;5.80;;;22.70;84.30;;;;;;5094944;28;20035;-71
2021/06/22 00:44:47;;;;;;;5.90;5.32;;;22.70;84.50;;;;;;5111158;28;20024;-71
2021/06/22 00:47:16;;;;;;;6.70;5.18;;;22.60;85.20;;;;;;5102042;28;20414;-71
2021/06/22 00:49:42;;;;;;;6.32;5.82;;;22.60;84.80;;;;;;5090700;28;20070;-70
2021/06/22 00:52:08;;;;;;;5.75;5.25;;;22.60;84.80;;;;;;5092807;28;20031;-71
2021/06/22 00:54:36;;;;;;;5.97;4.97;;;22.60;85.10;;;;;;5093857;28;20043;-71
2021/06/22 00:57:05;;;;;;;6.28;4.95;;;22.50;84.60;;;;;;5101472;28;20486;-71
2021/06/22 00:59:31;;;;;;;5.57;4.10;;;22.40;84.10;;;;;;5092592;28;20024;-71
2021/06/22 01:01:57;;;;;;;5.72;4.60;;;22.40;84.20;;;;;;5092322;28;20031;-71
2021/06/22 01:04:23;;;;;;;5.03;4.15;;;22.30;84.20;;;;;;5093016;28;20058;-70
2021/06/22 01:06:49;;;;;;;7.60;5.53;;;22.40;85.20;;;;;;5098483;28;20055;-70
2021/06/22 01:09:14;;;;;;;7.15;5.43;;;22.30;85.30;;;;;;5092700;28;20366;-70
2021/06/22 01:11:41;;;;;;;13.40;6.38;;;22.30;85.00;;;;;;5092664;28;20030;-70
2021/06/22 01:14:06;;;;;;;9.07;5.50;;;22.30;84.00;;;;;;5092540;28;20024;-70
2021/06/22 01:16:32;;;;;;;6.57;5.30;;;22.30;85.10;;;;;;5092211;28;20081;-70
2021/06/22 01:19:00;;;;;;;11.48;5.13;;;22.30;84.60;;;;;;5092325;28;20024;-71
2021/06/22 01:21:31;;;;;;;6.60;4.50;;;22.30;84.70;;;;;;5092865;28;20095;-70
2021/06/22 01:24:09;;;;;;;13.82;4.97;;;22.30;84.90;;;;;;5091035;28;20363;-70
2021/06/22 01:26:36;;;;;;;9.57;4.80;;;22.20;84.80;;;;;;5092236;28;20378;-70
2021/06/22 01:29:04;;;;;;;8.20;4.97;;;22.20;84.70;;;;;;5092359;28;20043;-71
2021/06/22 01:31:30;;;;;;;6.32;4.10;;;22.30;85.50;;;;;;5092353;28;20026;-70
2021/06/22 01:33:56;;;;;;;5.03;3.60;;;22.30;85.70;;;;;;5098573;28;20435;-70
2021/06/22 01:36:22;;;;;;;8.50;4.68;;;22.40;86.20;;;;;;5103485;28;20024;-70
2021/06/22 01:38:49;;;;;;;5.30;3.70;;;22.50;86.00;;;;;;5099928;28;20408;-70
2021/06/22 01:41:15;;;;;;;7.63;4.10;;;22.50;86.30;;;;;;5112509;28;20092;-70
2021/06/22 01:43:41;;;;;;;7.45;4.07;;;22.50;86.00;;;;;;5111013;28;20024;-70
2021/06/22 01:46:06;;;;;;;8.05;4.30;;;22.60;86.50;;;;;;5110538;27;20016;-71
2021/06/22 01:48:32;;;;;;;5.00;3.90;;;22.70;86.30;;;;;;5092360;28;20021;-70
2021/06/22 01:50:58;;;;;;;5.63;3.83;;;22.70;86.20;;;;;;5110647;28;20032;-70
2021/06/22 01:53:25;;;;;;;8.80;4.20;;;22.70;86.40;;;;;;5111934;28;20023;-70
2021/06/22 01:55:52;;;;;;;7.90;3.67;;;22.80;86.10;;;;;;5109006;28;20447;-71
2021/06/22 01:58:20;;;;;;;4.38;4.00;;;22.80;86.30;;;;;;5091729;28;20034;-70
2021/06/22 02:00:49;;;;;;;4.70;4.20;;;22.90;86.50;;;;;;5091816;28;20016;-70
2021/06/22 02:03:17;;;;;;;6.65;3.58;;;22.90;86.50;;;;;;5100518;28;20027;-70
2021/06/22 02:05:43;;;;;;;3.80;3.38;;;22.90;86.30;;;;;;5109523;28;20019;-71
2021/06/22 02:08:10;;;;;;;6.32;4.00;;;23.00;85.00;;;;;;5091513;28;20423;-70
2021/06/22 02:10:37;;;;;;;4.18;3.78;;;22.90;84.00;;;;;;5090264;28;20027;-70
2021/06/22 02:13:03;;;;;;;3.97;3.53;;;22.90;84.50;;;;;;5091044;28;20035;-70
2021/06/22 02:15:30;;;;;;;6.78;3.42;;;22.80;84.60;;;;;;5090189;28;20049;-70
2021/06/22 02:17:56;;;;;;;6.10;3.45;;;22.80;84.50;;;;;;5091382;28;20040;-71
2021/06/22 02:20:22;;;;;;;6.82;3.50;;;22.80;83.70;;;;;;5091559;28;20103;-70
2021/06/22 02:22:47;;;;;;;5.70;3.25;;;22.70;83.80;;;;;;5090189;28;20031;-70
2021/06/22 02:25:14;;;;;;;5.07;3.15;;;22.70;83.70;;;;;;5091640;28;20473;-70
2021/06/22 02:27:41;;;;;;;4.47;3.10;;;22.70;84.00;;;;;;5089929;28;20027;-70
2021/06/22 02:30:13;;;;;;;4.05;3.00;;;22.60;83.80;;;;;;5091491;28;20031;-70
2021/06/22 02:32:39;;;;;;;4.70;2.80;;;22.60;84.30;;;;;;5091559;28;20102;-70
2021/06/22 02:35:08;;;;;;;3.35;3.08;;;22.60;84.50;;;;;;5091421;28;20484;-70
2021/06/22 02:37:35;;;;;;;7.35;3.63;;;22.60;84.90;;;;;;5092787;28;20088;-70
2021/06/22 02:40:02;;;;;;;5.28;3.30;;;22.70;85.00;;;;;;5104322;28;20031;-70
2021/06/22 02:42:28;;;;;;;3.75;2.95;;;22.70;85.30;;;;;;5111522;28;20030;-70
2021/06/22 02:44:54;;;;;;;6.40;3.13;;;22.70;85.50;;;;;;5111198;28;20020;-70
2021/06/22 02:47:20;;;;;;;5.00;3.13;;;22.70;85.70;;;;;;5112456;28;20149;-71
2021/06/22 02:49:45;;;;;;;3.35;3.05;;;22.80;86.00;;;;;;5099878;28;20069;-70
2021/06/22 02:52:11;;;;;;;3.80;3.40;;;22.80;85.30;;;;;;5091696;28;20040;-70
2021/06/22 02:54:38;;;;;;;5.03;4.00;;;22.80;85.40;;;;;;5092311;28;20095;-70
2021/06/22 02:57:12;;;;;;;8.75;4.15;;;22.80;85.60;;;;;;5092260;28;20028;-70
2021/06/22 02:59:39;;;;;;;4.32;3.70;;;22.80;85.70;;;;;;5092403;28;20024;-70
2021/06/22 03:02:05;;;;;;;4.22;3.35;;;22.80;85.80;;;;;;5092220;28;20028;-70
2021/06/22 03:04:33;;;;;;;6.05;3.20;;;22.90;85.60;;;;;;5105250;28;20028;-70
2021/06/22 03:06:59;;;;;;;11.65;4.53;;;22.80;85.50;;;;;;5112694;28;20098;-70
2021/06/22 03:09:25;;;;;;;5.07;3.15;;;22.90;85.70;;;;;;5103420;28;20024;-70
2021/06/22 03:11:52;;;;;;;4.78;3.40;;;22.80;85.50;;;;;;5092234;28;20038;-70
2021/06/22 03:14:19;;;;;;;4.05;3.22;;;22.90;85.80;;;;;;5092202;28;20020;-70
2021/06/22 03:16:45;;;;;;;8.15;3.60;;;22.90;85.90;;;;;;5102720;28;20015;-70
2021/06/22 03:19:12;;;;;;;4.97;3.35;;;22.90;85.90;;;;;;5091024;28;20024;-70
2021/06/22 03:21:40;;;;;;;5.53;3.25;;;22.90;85.40;;;;;;5092172;28;20032;-70
2021/06/22 03:24:06;;;;;;;6.38;3.50;;;22.90;85.30;;;;;;5091979;28;20080;-70
2021/06/22 03:26:31;;;;;;;4.80;4.07;;;22.90;85.40;;;;;;5095369;28;20415;-70
2021/06/22 03:29:00;;;;;;;5.20;3.85;;;22.80;84.70;;;;;;5095686;28;20355;-70
2021/06/22 03:31:26;;;;;;;4.03;3.50;;;22.80;84.80;;;;;;5095719;28;20013;-70
2021/06/22 03:33:52;;;;;;;4.18;3.45;;;22.70;84.70;;;;;;5095761;28;20358;-71
2021/06/22 03:36:17;;;;;;;5.03;3.88;;;22.80;85.30;;;;;;5095463;28;20469;-70
2021/06/22 03:38:43;;;;;;;8.35;4.22;;;22.70;85.30;;;;;;5111199;28;20138;-70
2021/06/22 03:41:09;;;;;;;4.38;3.90;;;22.80;85.60;;;;;;5115876;28;20027;-70
2021/06/22 03:43:35;;;;;;;3.95;3.65;;;22.80;85.80;;;;;;5115488;27;20031;-70
2021/06/22 03:46:03;;;;;;;5.43;3.92;;;22.80;86.20;;;;;;5112673;27;20067;-70
2021/06/22 03:48:29;;;;;;;6.85;3.88;;;22.90;86.50;;;;;;5095076;28;20015;-70
2021/06/22 03:50:54;;;;;;;6.07;3.95;;;22.90;86.40;;;;;;5095030;28;20115;-70
2021/06/22 03:53:20;;;;;;;6.63;4.15;;;22.90;85.50;;;;;;5095299;28;20381;-70
2021/06/22 03:55:46;;;;;;;5.88;3.78;;;22.90;85.70;;;;;;5095072;28;20028;-70
2021/06/22 03:58:11;;;;;;;5.57;3.95;;;22.90;85.60;;;;;;5094980;28;20393;-70
2021/06/22 04:00:37;;;;;;;8.60;4.45;;;22.90;85.50;;;;;;5093629;28;20151;-70
2021/06/22 04:03:03;;;;;;;5.88;4.13;;;23.00;85.80;;;;;;5101873;28;20028;-70
2021/06/22 04:05:30;;;;;;;4.75;3.97;;;22.90;85.80;;;;;;5101805;28;20028;-70
2021/06/22 04:08:00;;;;;;;4.95;3.58;;;23.00;85.90;;;;;;5094991;28;20385;-69
2021/06/22 04:10:28;;;;;;;4.63;3.85;;;23.00;85.90;;;;;;5095237;28;20039;-70
2021/06/22 04:12:53;;;;;;;6.75;3.90;;;23.00;86.10;;;;;;5113401;28;20051;-70
2021/06/22 04:15:19;;;;;;;12.07;3.80;;;23.00;86.30;;;;;;5103419;27;20059;-70
2021/06/22 04:17:46;;;;;;;6.38;4.13;;;23.00;85.80;;;;;;5094672;28;20397;-69
2021/06/22 04:20:12;;;;;;;5.45;3.85;;;23.10;86.10;;;;;;5094809;28;20091;-70
2021/06/22 04:22:38;;;;;;;7.80;3.92;;;23.00;86.30;;;;;;5110294;28;20473;-70
2021/06/22 04:25:05;;;;;;;6.45;3.97;;;23.10;86.50;;;;;;5094217;28;20384;-70
2021/06/22 04:27:30;;;;;;;7.05;3.53;;;23.10;86.30;;;;;;5094319;28;20143;-70
2021/06/22 04:29:56;;;;;;;5.25;3.55;;;23.10;86.50;;;;;;5094434;28;20052;-70
2021/06/22 04:32:22;;;;;;;5.63;3.90;;;23.20;86.40;;;;;;5111731;28;20026;-70
2021/06/22 04:34:48;;;;;;;7.35;4.28;;;23.20;86.20;;;;;;5092521;28;20032;-70
2021/06/22 04:37:14;;;;;;;5.80;4.22;;;23.20;86.50;;;;;;5098011;28;20023;-70
2021/06/22 04:39:40;;;;;;;7.13;4.15;;;23.20;86.50;;;;;;5093797;28;20032;-70
2021/06/22 04:42:06;;;;;;;13.18;4.90;;;23.30;86.30;;;;;;5106476;28;20034;-70
2021/06/22 04:44:31;;;;;;;7.63;4.15;;;23.30;85.60;;;;;;5100775;28;20020;-70
2021/06/22 04:46:57;;;;;;;16.10;4.95;;;23.30;86.10;;;;;;5093630;28;20028;-70
2021/06/22 04:49:23;;;;;;;12.40;4.97;;;23.30;85.70;;;;;;5092647;28;20126;-70
2021/06/22 04:51:52;;;;;;;6.10;3.60;;;23.30;86.20;;;;;;5094112;28;20451;-70
2021/06/22 04:54:18;;;;;;;5.30;3.85;;;23.40;86.50;;;;;;5093975;28;20112;-70
2021/06/22 04:56:46;;;;;;;6.65;3.30;;;23.40;86.10;;;;;;5094033;28;20437;-71
2021/06/22 04:59:12;;;;;;;8.07;3.95;;;23.40;85.70;;;;;;5093849;28;20016;-70
2021/06/22 05:01:38;;;;;;;6.25;4.15;;;23.50;86.00;;;;;;5096407;28;20107;-70
2021/06/22 05:04:05;;;;;;;7.20;3.80;;;23.50;85.90;;;;;;5093852;28;20111;-71
2021/06/22 05:06:31;;;;;;;6.50;3.83;;;23.50;85.80;;;;;;5093669;28;20023;-70
2021/06/22 05:08:57;;;;;;;8.85;4.07;;;23.60;86.10;;;;;;5092544;28;20020;-70
2021/06/22 05:11:23;;;;;;;11.45;3.15;;;23.60;86.40;;;;;;5093295;28;20106;-71
2021/06/22 05:13:48;;;;;;;7.88;3.22;;;23.70;86.40;;;;;;5093506;28;20430;-70
2021/06/22 05:16:16;;;;;;;4.93;3.50;;;23.70;86.40;;;;;;5092254;28;20036;-71
2021/06/22 05:18:42;;;;;;;5.65;3.72;;;23.80;86.30;;;;;;5092297;28;20062;-70
2021/06/22 05:21:07;;;;;;;5.78;3.67;;;23.80;85.90;;;;;;5102187;28;20486;-70
2021/06/22 05:23:33;;;;;;;8.60;3.42;;;23.80;85.60;;;;;;5093313;28;20041;-70
2021/06/22 05:25:59;;;;;;;17.27;3.70;;;23.80;85.10;;;;;;5093378;28;20024;-70
2021/06/22 05:28:25;;;;;;;7.32;3.42;;;23.80;85.20;;;;;;5105564;28;20043;-71
2021/06/22 05:30:50;;;;;;;7.00;3.65;;;23.80;85.40;;;;;;5113594;28;20042;-70
2021/06/22 05:33:16;;;;;;;5.97;2.72;;;23.80;84.90;;;;;;5105815;28;20024;-70
2021/06/22 05:35:45;;;;;;;7.75;3.50;;;23.70;83.80;;;;;;5101296;28;20024;-70
2021/06/22 05:38:10;;;;;;;5.60;3.35;;;23.70;84.20;;;;;;5109648;28;20107;-71
2021/06/22 05:40:36;;;;;;;5.15;2.58;;;23.70;84.30;;;;;;5110866;28;20106;-70
2021/06/22 05:43:03;;;;;;;4.63;2.75;;;23.70;84.50;;;;;;5111172;28;20026;-71
2021/06/22 05:45:28;;;;;;;9.07;3.25;;;23.80;84.60;;;;;;5109994;28;20026;-71
2021/06/22 05:47:54;;;;;;;6.32;3.30;;;23.80;85.30;;;;;;5111128;28;20024;-70
2021/06/22 05:50:20;;;;;;;10.00;2.67;;;23.90;85.20;;;;;;5111357;28;20035;-71
2021/06/22 05:52:46;;;;;;;7.47;2.90;;;24.00;85.50;;;;;;5111410;28;20031;-71
2021/06/22 05:55:21;;;;;;;5.90;3.40;;;24.10;85.90;;;;;;5093604;28;20564;-70
2021/06/22 05:57:49;;;;;;;12.00;3.92;;;24.20;85.00;;;;;;5097164;28;20034;-71
2021/06/22 06:00:16;;;;;;;6.07;2.83;;;24.20;85.20;;;;;;5111606;28;20028;-71
2021/06/22 06:02:42;;;;;;;13.10;3.15;;;24.30;84.10;;;;;;5098664;28;20047;-71
2021/06/22 06:05:09;;;;;;;12.52;3.33;;;24.30;84.30;;;;;;5111605;28;20472;-71
2021/06/22 06:07:36;;;;;;;6.15;2.92;;;24.40;84.60;;;;;;5111640;28;20046;-71
2021/06/22 06:10:04;;;;;;;5.70;2.80;;;24.50;85.10;;;;;;5109545;28;20027;-70
2021/06/22 06:12:30;;;;;;;4.25;2.42;;;24.60;84.40;;;;;;5107614;28;20019;-71
2021/06/22 06:14:56;;;;;;;4.40;2.42;;;24.70;84.00;;;;;;5098377;28;20024;-71
2021/06/22 06:17:22;;;;;;;7.30;3.72;;;24.70;83.40;;;;;;5111580;28;20012;-71
2021/06/22 06:19:50;;;;;;;6.28;2.85;;;24.80;83.50;;;;;;5111787;28;20034;-70
2021/06/22 06:22:16;;;;;;;6.53;3.05;;;24.90;83.40;;;;;;5102066;28;20081;-71
2021/06/22 06:24:42;;;;;;;11.90;3.05;;;25.00;82.20;;;;;;5091154;28;20024;-71
2021/06/22 06:27:16;;;;;;;3.33;2.35;;;25.00;81.10;;;;;;5092339;28;20036;-71
2021/06/22 06:32:08;;;;;;;8.77;2.72;;;25.20;81.40;;;;;;5092524;28;20067;-70
2021/06/22 06:34:34;;;;;;;5.93;2.65;;;25.20;80.30;;;;;;5096627;28;20043;-71
2021/06/22 06:36:59;;;;;;;5.20;3.08;;;25.20;77.90;;;;;;5111188;28;20112;-71
2021/06/22 06:39:25;;;;;;;4.88;2.30;;;25.20;77.20;;;;;;5112703;28;20026;-70
2021/06/22 06:41:51;;;;;;;4.68;2.42;;;25.20;77.20;;;;;;5109828;28;20020;-71
2021/06/22 06:44:16;;;;;;;7.82;2.65;;;25.10;76.30;;;;;;5111315;28;20024;-70
2021/06/22 06:46:42;;;;;;;6.30;2.55;;;25.10;76.60;;;;;;5111987;28;20380;-70
2021/06/22 06:49:08;;;;;;;4.68;2.58;;;25.10;76.50;;;;;;5110429;28;20499;-70
2021/06/22 06:51:33;;;;;;;8.00;3.15;;;25.10;74.30;;;;;;5097179;28;20030;-70
2021/06/22 06:53:59;;;;;;;8.93;2.83;;;25.00;74.70;;;;;;5109161;28;20027;-70
2021/06/22 06:56:25;;;;;;;6.70;2.75;;;25.00;73.40;;;;;;5108896;28;20482;-70
2021/06/22 06:58:50;;;;;;;6.97;2.78;;;25.00;71.90;;;;;;5110813;28;20369;-70
2021/06/22 07:01:16;;;;;;;12.18;2.80;;;24.90;72.70;;;;;;5114696;28;20076;-70
2021/06/22 07:03:45;;;;;;;8.50;3.25;;;24.90;70.80;;;;;;5114402;28;20463;-70
2021/06/22 07:06:12;;;;;;;6.90;2.72;;;24.90;71.80;;;;;;5114323;28;20047;-70
2021/06/22 07:08:39;;;;;;;6.75;2.85;;;24.90;72.20;;;;;;5114222;28;20047;-71
2021/06/22 07:11:05;;;;;;;5.43;2.25;;;24.90;69.60;;;;;;5108350;28;20020;-70
2021/06/22 07:13:31;;;;;;;5.40;2.17;;;24.90;69.40;;;;;;5115181;27;20028;-70
2021/06/22 07:15:56;;;;;;;5.45;1.90;;;24.90;71.00;;;;;;5115008;28;20030;-71
2021/06/22 07:18:22;;;;;;;6.75;2.53;;;25.00;69.40;;;;;;5114641;27;20058;-70
2021/06/22 07:20:48;;;;;;;9.60;2.30;;;25.00;68.50;;;;;;5115092;28;20376;-70
2021/06/22 07:23:14;;;;;;;3.67;1.65;;;25.10;66.50;;;;;;5114754;28;20038;-71
2021/06/22 07:25:40;;;;;;;5.72;2.13;;;25.10;68.50;;;;;;5113158;28;20381;-71
2021/06/22 07:28:06;;;;;;;5.88;1.80;;;25.10;64.50;;;;;;5114913;28;20418;-71
2021/06/22 07:30:33;;;;;;;7.13;2.08;;;25.10;66.50;;;;;;5114004;28;20055;-71
2021/06/22 07:32:59;;;;;;;6.57;2.05;;;25.20;67.70;;;;;;5113069;27;20710;-70
2021/06/22 07:35:28;;;;;;;4.22;2.15;;;25.30;67.90;;;;;;5114857;27;20053;-70
2021/06/22 07:37:53;;;;;;;3.65;1.88;;;25.30;67.70;;;;;;5108006;28;20115;-71
2021/06/22 07:40:19;;;;;;;3.35;1.80;;;25.40;67.10;;;;;;5105639;28;20103;-71
2021/06/22 07:42:47;;;;;;;5.78;2.20;;;25.50;67.90;;;;;;5110735;27;20028;-70
2021/06/22 07:45:13;;;;;;;4.70;2.15;;;25.50;67.50;;;;;;5095386;28;20020;-71
2021/06/22 07:47:38;;;;;;;9.77;2.60;;;25.60;64.30;;;;;;5101115;28;20032;-71
2021/06/22 07:50:07;;;;;;;3.95;1.70;;;25.60;63.80;;;;;;5106673;27;20054;-71
2021/06/22 07:52:33;;;;;;;4.72;1.85;;;25.70;62.70;;;;;;5114343;28;20031;-71
2021/06/22 07:54:58;;;;;;;2.67;1.70;;;25.70;64.10;;;;;;5113467;28;20028;-71
2021/06/22 07:57:24;;;;;;;3.90;2.35;;;25.80;64.70;;;;;;5104504;28;20042;-71
2021/06/22 07:59:50;;;;;;;3.95;1.90;;;25.80;63.40;;;;;;5114303;28;20023;-71
2021/06/22 08:02:15;;;;;;;5.15;1.83;;;25.90;65.50;;;;;;5114177;28;20433;-71
2021/06/22 08:04:41;;;;;;;5.13;1.85;;;25.90;64.40;;;;;;5111157;28;20024;-72
2021/06/22 08:07:07;;;;;;;14.40;2.15;;;25.90;63.60;;;;;;5111559;28;20049;-71
2021/06/22 08:09:33;;;;;;;11.82;2.00;;;26.00;63.60;;;;;;5107940;28;20024;-71
2021/06/22 08:12:00;;;;;;;7.95;2.08;;;26.10;64.30;;;;;;5105176;28;20011;-70
2021/06/22 08:14:26;;;;;;;7.45;2.00;;;26.10;61.50;;;;;;5093803;28;20020;-71
2021/06/22 08:16:52;;;;;;;5.55;1.80;;;26.10;61.50;;;;;;5105287;28;20090;-71
2021/06/22 08:19:18;;;;;;;5.70;2.13;;;26.20;63.00;;;;;;5114009;28;20016;-71
2021/06/22 08:21:44;;;;;;;5.45;2.10;;;26.20;63.40;;;;;;5096669;28;20027;-71
2021/06/22 08:24:10;;;;;;;8.20;2.10;;;26.30;64.20;;;;;;5114851;28;20389;-70
2021/06/22 08:26:35;;;;;;;4.80;1.90;;;26.40;64.80;;;;;;5099690;28;20465;-70
2021/06/22 08:29:02;;;;;;;8.32;3.25;;;26.50;64.60;;;;;;5093276;28;20085;-71
2021/06/22 08:34:49;;;;;;;14.88;4.45;;;26.90;65.10;;;;;;5094820;28;20569;-71
2021/06/22 08:37:15;;;;;;;14.50;2.33;;;27.10;62.10;;;;;;5099983;28;20059;-71
2021/06/22 08:39:41;;;;;;;7.43;2.83;;;27.30;62.70;;;;;;5111525;28;20028;-71
2021/06/22 08:42:09;;;;;;;4.20;2.08;;;27.40;61.50;;;;;;5109573;28;20089;-70
2021/06/22 08:44:37;;;;;;;4.55;2.05;;;27.60;60.00;;;;;;5113950;28;20410;-71
2021/06/22 08:47:03;;;;;;;4.97;2.15;;;27.60;62.10;;;;;;5108123;28;20051;-71
2021/06/22 08:49:33;;;;;;;7.15;2.50;;;27.70;62.60;;;;;;5108445;28;20070;-71
2021/06/22 08:52:00;;;;;;;5.00;2.10;;;27.80;59.90;;;;;;5092759;28;20016;-71
2021/06/22 08:54:26;;;;;;;20.55;2.55;;;27.80;60.10;;;;;;5113724;28;20034;-71
2021/06/22 08:56:54;;;;;;;15.20;2.35;;;27.90;58.30;;;;;;5096304;28;20031;-71
2021/06/22 08:59:20;;;;;;;5.57;2.38;;;27.90;58.30;;;;;;5094126;28;20022;-71
2021/06/22 09:01:46;;;;;;;4.22;2.15;;;28.00;62.00;;;;;;5094100;28;20509;-71
2021/06/22 09:04:12;;;;;;;8.20;2.20;;;28.10;59.40;;;;;;5097573;28;20063;-71
2021/06/22 09:06:44;;;;;;;6.53;2.80;;;28.10;56.80;;;;;;5113619;28;20019;-71
2021/06/22 09:09:11;;;;;;;3.25;2.40;;;28.20;57.60;;;;;;5102011;28;20028;-71
2021/06/22 09:11:38;;;;;;;5.57;2.55;;;28.20;59.80;;;;;;5093733;28;20032;-71
2021/06/22 09:14:06;;;;;;;14.73;2.25;;;28.20;57.60;;;;;;5100942;28;20046;-72
2021/06/22 09:16:32;;;;;;;7.47;2.03;;;28.30;56.60;;;;;;5111730;28;20023;-71
2021/06/22 09:19:10;;;;;;;4.10;2.13;;;28.30;57.60;;;;;;5112249;28;20028;-71
2021/06/22 09:21:44;;;;;;;5.47;2.03;;;28.30;58.60;;;;;;5100275;28;20117;-71
2021/06/22 09:24:26;;;;;;;4.30;1.77;;;28.40;59.10;;;;;;5112806;28;20028;-71
2021/06/22 09:26:53;;;;;;;5.57;1.95;;;28.50;58.70;;;;;;5109887;28;20059;-71
2021/06/22 09:29:21;;;;;;;5.13;2.55;;;28.60;59.30;;;;;;5112817;28;20122;-71
2021/06/22 09:31:51;;;;;;;5.38;2.80;;;28.70;58.10;;;;;;5112820;28;20012;-71
2021/06/22 09:34:18;;;;;;;7.70;2.00;;;28.80;59.80;;;;;;5112721;28;20020;-71
2021/06/22 09:36:51;;;;;;;2.67;2.08;;;29.00;59.10;;;;;;5112839;28;20020;-71
2021/06/22 09:39:17;;;;;;;3.55;2.05;;;29.10;58.60;;;;;;5112351;28;20090;-71
2021/06/22 09:41:43;;;;;;;5.53;2.10;;;29.10;57.50;;;;;;5112948;28;20031;-71
2021/06/22 09:44:15;;;;;;;3.63;2.15;;;29.20;56.40;;;;;;5111606;28;20104;-71
2021/06/22 09:46:47;;;;;;;5.40;2.20;;;29.30;56.20;;;;;;5112376;28;20366;-71
2021/06/22 09:49:22;;;;;;;9.75;3.92;;;29.30;55.10;;;;;;5103647;28;20036;-71
2021/06/22 09:51:51;;;;;;;5.80;2.20;;;29.40;54.70;;;;;;5107769;28;20035;-71
2021/06/22 09:54:25;;;;;;;5.13;2.10;;;29.40;55.60;;;;;;5112567;28;20373;-71
2021/06/22 09:56:52;;;;;;;3.95;2.08;;;29.40;53.90;;;;;;5096722;28;20104;-71
2021/06/22 09:59:18;;;;;;;5.80;2.17;;;29.50;55.10;;;;;;5093054;28;20027;-71
2021/06/22 10:01:44;;;;;;;7.88;2.88;;;29.60;54.10;;;;;;5099197;28;20469;-71
2021/06/22 10:04:18;;;;;;;6.93;2.38;;;29.70;54.10;;;;;;5112165;28;20034;-71
2021/06/22 10:06:52;;;;;;;3.92;2.00;;;29.80;54.10;;;;;;5111729;28;20030;-71
2021/06/22 10:09:35;;;;;;;5.57;2.45;;;29.90;52.90;;;;;;5098991;28;20473;-71
2021/06/22 10:12:01;;;;;;;;;;;30.00;54.00;;;;;;5112655;28;20050;-71
2021/06/22 10:14:31;;;;;;;3.42;2.25;;;30.20;55.80;;;;;;5113197;28;19903;-71
2021/06/22 10:16:59;;;;;;;3.22;2.20;;;30.30;52.60;;;;;;5107661;28;20028;-71
2021/06/22 10:19:25;;;;;;;8.00;1.90;;;30.30;53.00;;;;;;5111618;28;20044;-71
2021/06/22 10:21:53;;;;;;;5.15;2.47;;;30.40;50.70;;;;;;5110666;28;20103;-71
2021/06/22 10:24:20;;;;;;;6.45;2.03;;;30.40;50.00;;;;;;5109593;28;20022;-71
2021/06/22 10:26:47;;;;;;;6.55;2.85;;;30.40;51.10;;;;;;5106944;28;20023;-71
2021/06/22 10:29:18;;;;;;;7.80;2.55;;;30.40;51.40;;;;;;5108483;28;20425;-72
2021/06/22 10:31:44;;;;;;;5.97;2.33;;;30.40;50.40;;;;;;5111143;28;20028;-71
2021/06/22 10:34:10;;;;;;;2.85;1.92;;;30.40;49.90;;;;;;5111245;28;20106;-71
2021/06/22 10:36:40;;;;;;;5.22;2.22;;;30.30;49.80;;;;;;5114403;28;20102;-72
2021/06/22 10:39:12;;;;;;;6.20;2.05;;;30.20;50.60;;;;;;5114179;28;20024;-72
2021/06/22 10:41:41;;;;;;;5.13;2.15;;;30.20;50.80;;;;;;5108682;28;20028;-72
2021/06/22 10:44:09;;;;;;;10.65;2.65;;;30.20;51.10;;;;;;5109801;28;20198;-72
2021/06/22 10:46:35;;;;;;;5.80;2.40;;;30.20;50.00;;;;;;5112308;28;20027;-72
2021/06/22 10:49:18;;;;;;;5.15;2.10;;;30.20;51.30;;;;;;5113686;28;20044;-73
2021/06/22 10:51:47;;;;;;;3.70;2.10;;;30.30;51.20;;;;;;5114995;28;20028;-73
2021/06/22 10:54:51;;;;;;;3.53;1.65;;;30.40;49.70;;;;;;5110248;28;20111;-74
2021/06/22 10:57:17;;;;;;;1.77;1.50;;;30.40;48.00;;;;;;5114365;28;20069;-75
2021/06/22 11:00:03;;;;;;;5.65;2.13;;;30.40;48.00;;;;;;5115886;28;20059;-75
2021/06/22 11:03:05;;;;;;;2.60;1.80;;;30.40;49.50;;;;;;5117829;27;20481;-76
2021/06/22 11:05:34;;;;;;;2.58;1.80;;;30.30;49.50;;;;;;5107738;28;20030;-76
2021/06/22 11:08:11;;;;;;;3.92;1.88;;;30.20;50.20;;;;;;5126669;27;20471;-75
2021/06/22 11:10:41;;;;;;;2.67;1.60;;;30.20;50.50;;;;;;5124280;27;20031;-75
2021/06/22 11:13:08;;;;;;;2.58;1.70;;;30.20;50.20;;;;;;5116759;28;20019;-76
2021/06/22 11:15:44;;;;;;;2.72;1.70;;;30.30;50.00;;;;;;5104248;28;20019;-75
2021/06/22 11:18:10;;;;;;;2.70;1.92;;;30.30;51.20;;;;;;5109482;28;20038;-75
2021/06/22 11:20:36;;;;;;;1.67;1.25;;;30.50;51.50;;;;;;5115475;28;20381;-75
2021/06/22 11:23:12;;;;;;;1.75;1.33;;;30.60;48.80;;;;;;5115846;28;20024;-75
2021/06/22 11:26:03;;;;;;;2.95;1.60;;;30.80;49.10;;;;;;5112521;28;20024;-75
2021/06/22 11:28:58;;;;;;;2.70;1.50;;;30.90;49.40;;;;;;5107397;28;20020;-75
2021/06/22 11:31:45;;;;;;;2.58;1.30;;;31.00;47.70;;;;;;5116407;28;20020;-75
2021/06/22 11:34:18;;;;;;;2.17;1.40;;;31.00;47.50;;;;;;5109780;28;20027;-75
2021/06/22 11:36:46;;;;;;;5.50;1.65;;;31.00;47.20;;;;;;5103210;28;20028;-75
2021/06/22 11:39:25;;;;;;;2.95;1.80;;;31.00;46.70;;;;;;5113542;28;20090;-75
2021/06/22 11:42:12;;;;;;;4.95;1.60;;;31.10;49.50;;;;;;5113708;28;20031;-75
2021/06/22 11:44:43;;;;;;;8.55;1.58;;;31.10;47.00;;;;;;5111318;28;20021;-75
2021/06/22 11:47:31;;;;;;;2.47;1.55;;;31.10;44.90;;;;;;5114139;28;20029;-75
2021/06/22 11:50:04;;;;;;;3.65;1.60;;;31.10;45.80;;;;;;5111703;28;20043;-75
2021/06/22 11:52:36;;;;;;;5.05;1.83;;;31.10;45.50;;;;;;5114262;28;20489;-75
2021/06/22 11:55:17;;;;;;;4.50;1.95;;;31.10;45.80;;;;;;5113210;27;20481;-75
2021/06/22 11:57:58;;;;;;;4.10;1.65;;;31.20;46.60;;;;;;5090271;28;20048;-75
2021/06/22 12:00:34;;;;;;;4.25;1.50;;;31.20;47.00;;;;;;5113932;28;20031;-75
2021/06/22 12:03:03;;;;;;;5.78;2.60;;;31.20;46.60;;;;;;5109244;28;20059;-75
2021/06/22 12:05:30;;;;;;;2.83;1.55;;;31.20;46.20;;;;;;5110916;28;20410;-75
2021/06/22 12:07:59;;;;;;;4.18;1.77;;;31.30;43.80;;;;;;5114368;28;20552;-75
2021/06/22 12:10:42;;;;;;;9.05;1.67;;;31.20;43.50;;;;;;5106369;28;20080;-75
2021/06/22 12:13:09;;;;;;;3.03;1.85;;;31.20;43.50;;;;;;5113517;28;20023;-75
2021/06/22 12:15:37;;;;;;;5.72;1.95;;;31.20;44.80;;;;;;5110834;28;20295;-75
2021/06/22 12:18:04;;;;;;;3.92;1.70;;;31.20;43.90;;;;;;5105732;28;20044;-75
2021/06/22 12:20:32;;;;;;;2.33;1.40;;;31.20;44.60;;;;;;5117175;27;20028;-75
2021/06/22 12:23:12;;;;;;;2.08;1.48;;;31.30;45.00;;;;;;5104640;28;20028;-75
2021/06/22 12:25:43;;;;;;;4.03;1.80;;;31.30;45.90;;;;;;5113930;28;20016;-75
2021/06/22 12:28:10;;;;;;;5.40;2.03;;;31.40;45.00;;;;;;5099343;28;20046;-75
2021/06/22 12:30:44;;;;;;;3.58;1.90;;;31.40;43.80;;;;;;5098968;28;20055;-74
2021/06/22 12:33:21;;;;;;;4.43;2.22;;;31.40;43.00;;;;;;5114623;28;20023;-75
2021/06/22 12:35:50;;;;;;;2.65;1.63;;;31.50;45.20;;;;;;5112526;28;20016;-75
2021/06/22 12:38:18;;;;;;;4.40;1.50;;;31.50;42.60;;;;;;5113995;28;20019;-74
2021/06/22 12:40:54;;;;;;;3.97;1.90;;;31.50;42.40;;;;;;5112089;28;20027;-75
2021/06/22 12:43:20;;;;;;;4.15;1.60;;;31.50;43.40;;;;;;5112524;28;20023;-75
2021/06/22 12:46:01;;;;;;;2.65;1.70;;;31.60;44.50;;;;;;5112176;28;20047;-75
2021/06/22 12:48:27;;;;;;;2.22;1.30;;;31.60;44.20;;;;;;5113071;28;20044;-74
2021/06/22 12:50:53;;;;;;;2.58;1.55;;;31.70;44.10;;;;;;5113466;28;20489;-74
2021/06/22 12:53:19;;;;;;;5.20;1.48;;;31.70;43.00;;;;;;5101180;28;20024;-74
2021/06/22 12:55:50;;;;;;;2.17;1.48;;;31.80;42.80;;;;;;5113827;28;20117;-74